sensor_id;sensor_type;location;lat;lon;timestamp;P1;durP1;ratioP1;P2;durP2;ratioP2
24559;SDS011;12727;49.934;8.656;2024-03-02T00:00:22;7.80;;;4.25;;
24559;SDS011;12727;49.934;8.656;2024-03-02T00:02:49;7.05;;;4.20;;
24559;SDS011;12727;49.934;8.656;2024-03-02T00:05:16;7.20;;;4.68;;
24559;SDS011;12727;49.934;8.656;2024-03-02T00:07:44;9.43;;;4.55;;
24559;SDS011;12727;49.934;8.656;2024-03-02T00:10:20;7.13;;;4.32;;
24559;SDS011;12727;49.934;8.656;2024-03-02T00:12:54;6.97;;;4.03;;
24559;SDS011;12727;49.934;8.656;2024-03-02T00:15:42;9.82;;;4.82;;
24559;SDS011;12727;49.934;8.656;2024-03-02T00:18:18;8.27;;;4.80;;
24559;SDS011;12727;49.934;8.656;2024-03-02T00:20:45;7.75;;;4.53;;
24559;SDS011;12727;49.934;8.656;2024-03-02T00:23:13;5.72;;;4.47;;
24559;SDS011;12727;49.934;8.656;2024-03-02T00:25:41;5.40;;;4.07;;
24559;SDS011;12727;49.934;8.656;2024-03-02T00:28:14;5.47;;;3.92;;
24559;SDS011;12727;49.934;8.656;2024-03-02T00:30:51;4.55;;;3.50;;
24559;SDS011;12727;49.934;8.656;2024-03-02T00:33:20;6.15;;;3.80;;
24559;SDS011;12727;49.934;8.656;2024-03-02T00:35:46;8.48;;;5.43;;
24559;SDS011;12727;49.934;8.656;2024-03-02T00:38:12;9.63;;;5.28;;
24559;SDS011;12727;49.934;8.656;2024-03-02T00:40:40;11.73;;;7.80;;
24559;SDS011;12727;49.934;8.656;2024-03-02T00:43:06;14.63;;;8.65;;
24559;SDS011;12727;49.934;8.656;2024-03-02T00:46:03;14.77;;;8.80;;
24559;SDS011;12727;49.934;8.656;2024-03-02T00:48:29;13.88;;;9.10;;
24559;SDS011;12727;49.934;8.656;2024-03-02T00:50:56;9.80;;;7.00;;
24559;SDS011;12727;49.934;8.656;2024-03-02T00:53:22;12.40;;;8.43;;
24559;SDS011;12727;49.934;8.656;2024-03-02T00:55:51;14.43;;;9.10;;
24559;SDS011;12727;49.934;8.656;2024-03-02T00:58:17;11.45;;;6.72;;
24559;SDS011;12727;49.934;8.656;2024-03-02T01:00:42;12.43;;;8.35;;
24559;SDS011;12727;49.934;8.656;2024-03-02T01:03:08;16.35;;;10.80;;
24559;SDS011;12727;49.934;8.656;2024-03-02T01:05:35;14.07;;;8.88;;
24559;SDS011;12727;49.934;8.656;2024-03-02T01:08:01;21.88;;;12.98;;
24559;SDS011;12727;49.934;8.656;2024-03-02T01:10:27;11.73;;;7.25;;
24559;SDS011;12727;49.934;8.656;2024-03-02T01:12:52;11.07;;;6.40;;
24559;SDS011;12727;49.934;8.656;2024-03-02T01:15:18;12.05;;;7.20;;
24559;SDS011;12727;49.934;8.656;2024-03-02T01:17:44;11.13;;;7.25;;
24559;SDS011;12727;49.934;8.656;2024-03-02T01:20:09;21.40;;;11.70;;
24559;SDS011;12727;49.934;8.656;2024-03-02T01:22:35;13.57;;;8.45;;
24559;SDS011;12727;49.934;8.656;2024-03-02T01:25:02;15.43;;;8.10;;
24559;SDS011;12727;49.934;8.656;2024-03-02T01:27:28;13.43;;;8.27;;
24559;SDS011;12727;49.934;8.656;2024-03-02T01:29:53;12.30;;;8.13;;
24559;SDS011;12727;49.934;8.656;2024-03-02T01:32:19;14.65;;;9.07;;
24559;SDS011;12727;49.934;8.656;2024-03-02T01:34:45;13.75;;;8.98;;
24559;SDS011;12727;49.934;8.656;2024-03-02T01:37:10;18.38;;;9.10;;
24559;SDS011;12727;49.934;8.656;2024-03-02T01:39:36;13.63;;;8.05;;
24559;SDS011;12727;49.934;8.656;2024-03-02T01:42:01;11.88;;;7.38;;
24559;SDS011;12727;49.934;8.656;2024-03-02T01:44:27;10.85;;;7.03;;
24559;SDS011;12727;49.934;8.656;2024-03-02T01:46:53;10.18;;;6.88;;
24559;SDS011;12727;49.934;8.656;2024-03-02T01:49:18;10.07;;;6.95;;
24559;SDS011;12727;49.934;8.656;2024-03-02T01:51:44;12.98;;;7.80;;
24559;SDS011;12727;49.934;8.656;2024-03-02T01:54:09;12.20;;;8.13;;
24559;SDS011;12727;49.934;8.656;2024-03-02T01:56:35;17.40;;;9.90;;
24559;SDS011;12727;49.934;8.656;2024-03-02T01:59:01;16.05;;;9.75;;
24559;SDS011;12727;49.934;8.656;2024-03-02T02:01:26;24.17;;;14.73;;
24559;SDS011;12727;49.934;8.656;2024-03-02T02:03:52;21.50;;;13.93;;
24559;SDS011;12727;49.934;8.656;2024-03-02T02:06:18;20.98;;;12.77;;
24559;SDS011;12727;49.934;8.656;2024-03-02T02:08:43;28.30;;;14.60;;
24559;SDS011;12727;49.934;8.656;2024-03-02T02:11:10;27.88;;;14.65;;
24559;SDS011;12727;49.934;8.656;2024-03-02T02:13:35;28.65;;;15.77;;
24559;SDS011;12727;49.934;8.656;2024-03-02T02:16:05;28.65;;;16.35;;
24559;SDS011;12727;49.934;8.656;2024-03-02T02:18:34;33.63;;;16.75;;
24559;SDS011;12727;49.934;8.656;2024-03-02T02:21:01;23.85;;;14.25;;
24559;SDS011;12727;49.934;8.656;2024-03-02T02:23:27;24.33;;;13.68;;
24559;SDS011;12727;49.934;8.656;2024-03-02T02:25:52;17.58;;;11.27;;
24559;SDS011;12727;49.934;8.656;2024-03-02T02:28:18;23.52;;;12.23;;
24559;SDS011;12727;49.934;8.656;2024-03-02T02:30:43;18.63;;;10.07;;
24559;SDS011;12727;49.934;8.656;2024-03-02T02:33:09;18.50;;;10.65;;
24559;SDS011;12727;49.934;8.656;2024-03-02T02:35:34;16.88;;;10.27;;
24559;SDS011;12727;49.934;8.656;2024-03-02T02:38:00;17.30;;;10.18;;
24559;SDS011;12727;49.934;8.656;2024-03-02T02:40:27;17.10;;;9.73;;
24559;SDS011;12727;49.934;8.656;2024-03-02T02:42:55;21.92;;;12.00;;
24559;SDS011;12727;49.934;8.656;2024-03-02T02:45:21;15.80;;;10.13;;
24559;SDS011;12727;49.934;8.656;2024-03-02T02:47:47;20.08;;;11.32;;
24559;SDS011;12727;49.934;8.656;2024-03-02T02:50:12;17.17;;;10.55;;
24559;SDS011;12727;49.934;8.656;2024-03-02T02:52:39;20.35;;;11.95;;
24559;SDS011;12727;49.934;8.656;2024-03-02T02:55:06;25.35;;;14.40;;
24559;SDS011;12727;49.934;8.656;2024-03-02T02:57:33;26.77;;;13.98;;
24559;SDS011;12727;49.934;8.656;2024-03-02T03:00:07;22.00;;;13.25;;
24559;SDS011;12727;49.934;8.656;2024-03-02T03:02:42;20.23;;;12.57;;
24559;SDS011;12727;49.934;8.656;2024-03-02T03:05:10;21.23;;;11.90;;
24559;SDS011;12727;49.934;8.656;2024-03-02T03:07:41;22.58;;;12.73;;
24559;SDS011;12727;49.934;8.656;2024-03-02T03:10:10;23.75;;;12.85;;
24559;SDS011;12727;49.934;8.656;2024-03-02T03:12:35;29.58;;;14.93;;
24559;SDS011;12727;49.934;8.656;2024-03-02T03:15:02;26.50;;;14.32;;
24559;SDS011;12727;49.934;8.656;2024-03-02T03:17:29;27.20;;;15.20;;
24559;SDS011;12727;49.934;8.656;2024-03-02T03:19:55;21.90;;;12.43;;
24559;SDS011;12727;49.934;8.656;2024-03-02T03:22:21;19.40;;;11.13;;
24559;SDS011;12727;49.934;8.656;2024-03-02T03:24:46;18.02;;;11.00;;
24559;SDS011;12727;49.934;8.656;2024-03-02T03:27:12;17.70;;;10.82;;
24559;SDS011;12727;49.934;8.656;2024-03-02T03:29:38;17.60;;;10.13;;
24559;SDS011;12727;49.934;8.656;2024-03-02T03:32:04;19.60;;;10.93;;
24559;SDS011;12727;49.934;8.656;2024-03-02T03:34:34;22.80;;;12.38;;
24559;SDS011;12727;49.934;8.656;2024-03-02T03:37:00;22.58;;;13.05;;
24559;SDS011;12727;49.934;8.656;2024-03-02T03:39:26;22.98;;;13.35;;
24559;SDS011;12727;49.934;8.656;2024-03-02T03:41:51;24.38;;;14.65;;
24559;SDS011;12727;49.934;8.656;2024-03-02T03:44:16;32.00;;;17.30;;
24559;SDS011;12727;49.934;8.656;2024-03-02T03:46:42;29.30;;;16.23;;
24559;SDS011;12727;49.934;8.656;2024-03-02T03:49:07;28.05;;;16.05;;
24559;SDS011;12727;49.934;8.656;2024-03-02T03:51:33;33.38;;;17.38;;
24559;SDS011;12727;49.934;8.656;2024-03-02T03:54:00;28.20;;;15.52;;
24559;SDS011;12727;49.934;8.656;2024-03-02T03:56:26;25.73;;;15.15;;
24559;SDS011;12727;49.934;8.656;2024-03-02T03:58:51;28.85;;;15.82;;
24559;SDS011;12727;49.934;8.656;2024-03-02T04:01:17;23.67;;;14.27;;
24559;SDS011;12727;49.934;8.656;2024-03-02T04:03:43;24.85;;;13.88;;
24559;SDS011;12727;49.934;8.656;2024-03-02T04:06:08;25.90;;;13.85;;
24559;SDS011;12727;49.934;8.656;2024-03-02T04:08:34;24.65;;;14.65;;
24559;SDS011;12727;49.934;8.656;2024-03-02T04:10:59;26.67;;;16.10;;
24559;SDS011;12727;49.934;8.656;2024-03-02T04:13:25;26.02;;;14.73;;
24559;SDS011;12727;49.934;8.656;2024-03-02T04:15:50;27.13;;;14.85;;
24559;SDS011;12727;49.934;8.656;2024-03-02T04:18:16;26.73;;;14.55;;
24559;SDS011;12727;49.934;8.656;2024-03-02T04:20:41;25.95;;;15.10;;
24559;SDS011;12727;49.934;8.656;2024-03-02T04:23:07;26.98;;;13.90;;
24559;SDS011;12727;49.934;8.656;2024-03-02T04:25:33;23.52;;;13.95;;
24559;SDS011;12727;49.934;8.656;2024-03-02T04:27:58;23.92;;;13.77;;
24559;SDS011;12727;49.934;8.656;2024-03-02T04:30:24;24.75;;;13.80;;
24559;SDS011;12727;49.934;8.656;2024-03-02T04:32:50;25.85;;;13.73;;
24559;SDS011;12727;49.934;8.656;2024-03-02T04:35:16;23.70;;;13.32;;
24559;SDS011;12727;49.934;8.656;2024-03-02T04:37:41;22.50;;;12.25;;
24559;SDS011;12727;49.934;8.656;2024-03-02T04:40:07;23.42;;;12.77;;
24559;SDS011;12727;49.934;8.656;2024-03-02T04:42:34;23.25;;;12.73;;
24559;SDS011;12727;49.934;8.656;2024-03-02T04:45:00;33.53;;;15.55;;
24559;SDS011;12727;49.934;8.656;2024-03-02T04:47:25;26.83;;;16.30;;
24559;SDS011;12727;49.934;8.656;2024-03-02T04:49:51;29.65;;;15.35;;
24559;SDS011;12727;49.934;8.656;2024-03-02T04:52:16;28.98;;;15.15;;
24559;SDS011;12727;49.934;8.656;2024-03-02T04:54:42;25.83;;;15.00;;
24559;SDS011;12727;49.934;8.656;2024-03-02T04:57:26;26.08;;;14.85;;
24559;SDS011;12727;49.934;8.656;2024-03-02T04:59:52;30.92;;;16.92;;
24559;SDS011;12727;49.934;8.656;2024-03-02T05:02:17;29.67;;;15.70;;
24559;SDS011;12727;49.934;8.656;2024-03-02T05:04:43;25.08;;;14.23;;
24559;SDS011;12727;49.934;8.656;2024-03-02T05:07:08;26.15;;;14.63;;
24559;SDS011;12727;49.934;8.656;2024-03-02T05:09:34;22.42;;;13.30;;
24559;SDS011;12727;49.934;8.656;2024-03-02T05:12:00;28.77;;;15.90;;
24559;SDS011;12727;49.934;8.656;2024-03-02T05:14:48;32.88;;;17.75;;
24559;SDS011;12727;49.934;8.656;2024-03-02T05:17:13;32.95;;;16.73;;
24559;SDS011;12727;49.934;8.656;2024-03-02T05:19:39;32.38;;;16.73;;
24559;SDS011;12727;49.934;8.656;2024-03-02T05:22:04;31.02;;;16.98;;
24559;SDS011;12727;49.934;8.656;2024-03-02T05:24:30;32.50;;;17.65;;
24559;SDS011;12727;49.934;8.656;2024-03-02T05:26:56;26.73;;;14.77;;
24559;SDS011;12727;49.934;8.656;2024-03-02T05:29:21;28.30;;;15.45;;
24559;SDS011;12727;49.934;8.656;2024-03-02T05:31:47;24.08;;;14.05;;
24559;SDS011;12727;49.934;8.656;2024-03-02T05:34:13;25.40;;;13.65;;
24559;SDS011;12727;49.934;8.656;2024-03-02T05:36:39;25.38;;;14.57;;
24559;SDS011;12727;49.934;8.656;2024-03-02T05:39:04;26.52;;;14.10;;
24559;SDS011;12727;49.934;8.656;2024-03-02T05:41:33;25.88;;;14.45;;
24559;SDS011;12727;49.934;8.656;2024-03-02T05:43:59;28.75;;;14.30;;
24559;SDS011;12727;49.934;8.656;2024-03-02T05:46:25;29.23;;;14.90;;
24559;SDS011;12727;49.934;8.656;2024-03-02T05:48:51;25.63;;;14.75;;
24559;SDS011;12727;49.934;8.656;2024-03-02T05:51:17;24.35;;;14.35;;
24559;SDS011;12727;49.934;8.656;2024-03-02T05:53:42;25.35;;;14.65;;
24559;SDS011;12727;49.934;8.656;2024-03-02T05:56:08;32.17;;;16.00;;
24559;SDS011;12727;49.934;8.656;2024-03-02T05:58:34;30.48;;;16.52;;
24559;SDS011;12727;49.934;8.656;2024-03-02T06:01:22;26.23;;;14.90;;
24559;SDS011;12727;49.934;8.656;2024-03-02T06:03:53;23.60;;;13.85;;
24559;SDS011;12727;49.934;8.656;2024-03-02T06:06:19;26.80;;;14.13;;
24559;SDS011;12727;49.934;8.656;2024-03-02T06:08:46;26.92;;;14.52;;
24559;SDS011;12727;49.934;8.656;2024-03-02T06:11:11;30.50;;;16.00;;
24559;SDS011;12727;49.934;8.656;2024-03-02T06:13:37;30.77;;;15.95;;
24559;SDS011;12727;49.934;8.656;2024-03-02T06:16:02;27.30;;;14.88;;
24559;SDS011;12727;49.934;8.656;2024-03-02T06:18:28;29.42;;;15.48;;
24559;SDS011;12727;49.934;8.656;2024-03-02T06:20:53;26.90;;;15.48;;
24559;SDS011;12727;49.934;8.656;2024-03-02T06:23:19;28.50;;;15.95;;
24559;SDS011;12727;49.934;8.656;2024-03-02T06:25:45;28.67;;;15.80;;
24559;SDS011;12727;49.934;8.656;2024-03-02T06:28:10;27.85;;;15.60;;
24559;SDS011;12727;49.934;8.656;2024-03-02T06:30:36;32.40;;;16.42;;
24559;SDS011;12727;49.934;8.656;2024-03-02T06:33:01;28.40;;;15.80;;
24559;SDS011;12727;49.934;8.656;2024-03-02T06:35:28;31.63;;;15.27;;
24559;SDS011;12727;49.934;8.656;2024-03-02T06:37:54;29.30;;;16.35;;
24559;SDS011;12727;49.934;8.656;2024-03-02T06:40:20;28.98;;;16.58;;
24559;SDS011;12727;49.934;8.656;2024-03-02T06:42:46;32.80;;;17.23;;
24559;SDS011;12727;49.934;8.656;2024-03-02T06:45:12;35.25;;;17.90;;
24559;SDS011;12727;49.934;8.656;2024-03-02T06:47:37;34.65;;;19.38;;
24559;SDS011;12727;49.934;8.656;2024-03-02T06:50:03;35.58;;;20.83;;
24559;SDS011;12727;49.934;8.656;2024-03-02T06:52:29;46.47;;;24.73;;
24559;SDS011;12727;49.934;8.656;2024-03-02T06:54:55;42.22;;;22.20;;
24559;SDS011;12727;49.934;8.656;2024-03-02T06:57:20;40.08;;;21.52;;
24559;SDS011;12727;49.934;8.656;2024-03-02T06:59:46;39.70;;;21.17;;
24559;SDS011;12727;49.934;8.656;2024-03-02T07:02:15;37.15;;;19.63;;
24559;SDS011;12727;49.934;8.656;2024-03-02T07:04:40;42.60;;;20.50;;
24559;SDS011;12727;49.934;8.656;2024-03-02T07:07:06;33.85;;;18.80;;
24559;SDS011;12727;49.934;8.656;2024-03-02T07:09:32;35.50;;;18.67;;
24559;SDS011;12727;49.934;8.656;2024-03-02T07:11:57;32.78;;;18.60;;
24559;SDS011;12727;49.934;8.656;2024-03-02T07:14:23;36.22;;;18.77;;
24559;SDS011;12727;49.934;8.656;2024-03-02T07:17:08;37.92;;;21.40;;
24559;SDS011;12727;49.934;8.656;2024-03-02T07:19:35;33.33;;;19.52;;
24559;SDS011;12727;49.934;8.656;2024-03-02T07:22:01;39.35;;;22.88;;
24559;SDS011;12727;49.934;8.656;2024-03-02T07:24:26;41.15;;;24.42;;
24559;SDS011;12727;49.934;8.656;2024-03-02T07:26:52;83.57;;;44.22;;
24559;SDS011;12727;49.934;8.656;2024-03-02T07:29:17;55.22;;;33.33;;
24559;SDS011;12727;49.934;8.656;2024-03-02T07:31:43;52.13;;;32.08;;
24559;SDS011;12727;49.934;8.656;2024-03-02T07:34:09;36.67;;;21.45;;
24559;SDS011;12727;49.934;8.656;2024-03-02T07:36:35;39.10;;;21.73;;
24559;SDS011;12727;49.934;8.656;2024-03-02T07:39:01;33.20;;;18.50;;
24559;SDS011;12727;49.934;8.656;2024-03-02T07:41:27;29.00;;;17.52;;
24559;SDS011;12727;49.934;8.656;2024-03-02T07:43:52;33.55;;;18.05;;
24559;SDS011;12727;49.934;8.656;2024-03-02T07:46:18;30.50;;;17.90;;
24559;SDS011;12727;49.934;8.656;2024-03-02T07:48:43;33.72;;;20.98;;
24559;SDS011;12727;49.934;8.656;2024-03-02T07:51:09;31.73;;;19.67;;
24559;SDS011;12727;49.934;8.656;2024-03-02T07:53:34;30.02;;;18.35;;
24559;SDS011;12727;49.934;8.656;2024-03-02T07:56:01;29.38;;;17.10;;
24559;SDS011;12727;49.934;8.656;2024-03-02T07:58:27;28.73;;;18.17;;
24559;SDS011;12727;49.934;8.656;2024-03-02T08:00:54;22.38;;;14.90;;
24559;SDS011;12727;49.934;8.656;2024-03-02T08:03:19;18.65;;;12.98;;
24559;SDS011;12727;49.934;8.656;2024-03-02T08:05:45;16.10;;;11.02;;
24559;SDS011;12727;49.934;8.656;2024-03-02T08:08:11;20.25;;;13.32;;
24559;SDS011;12727;49.934;8.656;2024-03-02T08:10:36;20.73;;;13.10;;
24559;SDS011;12727;49.934;8.656;2024-03-02T08:13:03;19.25;;;13.35;;
24559;SDS011;12727;49.934;8.656;2024-03-02T08:15:29;20.85;;;13.52;;
24559;SDS011;12727;49.934;8.656;2024-03-02T08:17:54;19.73;;;11.88;;
24559;SDS011;12727;49.934;8.656;2024-03-02T08:20:21;21.40;;;12.15;;
24559;SDS011;12727;49.934;8.656;2024-03-02T08:22:46;19.73;;;12.27;;
24559;SDS011;12727;49.934;8.656;2024-03-02T08:25:12;19.35;;;12.30;;
24559;SDS011;12727;49.934;8.656;2024-03-02T08:27:38;18.20;;;11.00;;
24559;SDS011;12727;49.934;8.656;2024-03-02T08:30:04;19.52;;;12.40;;
24559;SDS011;12727;49.934;8.656;2024-03-02T08:32:31;21.25;;;13.38;;
24559;SDS011;12727;49.934;8.656;2024-03-02T08:34:56;24.10;;;14.80;;
24559;SDS011;12727;49.934;8.656;2024-03-02T08:37:22;27.80;;;17.42;;
24559;SDS011;12727;49.934;8.656;2024-03-02T08:39:48;25.48;;;15.15;;
24559;SDS011;12727;49.934;8.656;2024-03-02T08:42:14;25.35;;;15.02;;
24559;SDS011;12727;49.934;8.656;2024-03-02T08:44:40;17.67;;;12.52;;
24559;SDS011;12727;49.934;8.656;2024-03-02T08:47:06;18.50;;;11.60;;
24559;SDS011;12727;49.934;8.656;2024-03-02T08:49:32;17.45;;;12.65;;
24559;SDS011;12727;49.934;8.656;2024-03-02T08:51:58;19.23;;;12.18;;
24559;SDS011;12727;49.934;8.656;2024-03-02T08:54:23;15.55;;;11.48;;
24559;SDS011;12727;49.934;8.656;2024-03-02T08:56:49;19.95;;;12.90;;
24559;SDS011;12727;49.934;8.656;2024-03-02T08:59:15;17.60;;;11.93;;
24559;SDS011;12727;49.934;8.656;2024-03-02T09:01:41;17.98;;;12.10;;
24559;SDS011;12727;49.934;8.656;2024-03-02T09:04:08;15.75;;;11.35;;
24559;SDS011;12727;49.934;8.656;2024-03-02T09:06:34;14.07;;;10.23;;
24559;SDS011;12727;49.934;8.656;2024-03-02T09:08:59;16.45;;;10.82;;
24559;SDS011;12727;49.934;8.656;2024-03-02T09:11:25;14.63;;;9.98;;
24559;SDS011;12727;49.934;8.656;2024-03-02T09:13:51;16.83;;;11.55;;
24559;SDS011;12727;49.934;8.656;2024-03-02T09:16:18;13.40;;;9.90;;
24559;SDS011;12727;49.934;8.656;2024-03-02T09:18:43;14.45;;;10.48;;
24559;SDS011;12727;49.934;8.656;2024-03-02T09:21:10;12.05;;;9.43;;
24559;SDS011;12727;49.934;8.656;2024-03-02T09:23:35;12.82;;;9.20;;
24559;SDS011;12727;49.934;8.656;2024-03-02T09:26:01;11.60;;;9.05;;
24559;SDS011;12727;49.934;8.656;2024-03-02T09:28:28;13.27;;;9.05;;
24559;SDS011;12727;49.934;8.656;2024-03-02T09:30:53;12.65;;;9.18;;
24559;SDS011;12727;49.934;8.656;2024-03-02T09:33:19;12.55;;;8.75;;
24559;SDS011;12727;49.934;8.656;2024-03-02T09:35:44;11.35;;;8.90;;
24559;SDS011;12727;49.934;8.656;2024-03-02T09:38:10;11.73;;;8.95;;
24559;SDS011;12727;49.934;8.656;2024-03-02T09:40:35;12.20;;;8.95;;
24559;SDS011;12727;49.934;8.656;2024-03-02T09:43:01;10.70;;;8.13;;
24559;SDS011;12727;49.934;8.656;2024-03-02T09:45:28;10.27;;;8.35;;
24559;SDS011;12727;49.934;8.656;2024-03-02T09:47:55;12.55;;;8.57;;
24559;SDS011;12727;49.934;8.656;2024-03-02T09:50:20;10.40;;;8.30;;
24559;SDS011;12727;49.934;8.656;2024-03-02T09:52:49;11.27;;;8.43;;
24559;SDS011;12727;49.934;8.656;2024-03-02T09:55:17;12.75;;;8.70;;
24559;SDS011;12727;49.934;8.656;2024-03-02T09:57:44;10.50;;;8.30;;
24559;SDS011;12727;49.934;8.656;2024-03-02T10:00:10;10.15;;;8.20;;
24559;SDS011;12727;49.934;8.656;2024-03-02T10:02:39;10.85;;;7.85;;
24559;SDS011;12727;49.934;8.656;2024-03-02T10:05:06;10.50;;;7.68;;
24559;SDS011;12727;49.934;8.656;2024-03-02T10:07:33;10.13;;;7.38;;
24559;SDS011;12727;49.934;8.656;2024-03-02T10:09:58;9.63;;;7.53;;
24559;SDS011;12727;49.934;8.656;2024-03-02T10:12:40;9.35;;;7.50;;
24559;SDS011;12727;49.934;8.656;2024-03-02T10:15:06;8.55;;;6.63;;
24559;SDS011;12727;49.934;8.656;2024-03-02T10:17:32;8.40;;;6.22;;
24559;SDS011;12727;49.934;8.656;2024-03-02T10:19:58;7.07;;;5.75;;
24559;SDS011;12727;49.934;8.656;2024-03-02T10:22:24;9.38;;;6.43;;
24559;SDS011;12727;49.934;8.656;2024-03-02T10:24:50;8.90;;;6.05;;
24559;SDS011;12727;49.934;8.656;2024-03-02T10:27:17;6.25;;;5.45;;
24559;SDS011;12727;49.934;8.656;2024-03-02T10:29:51;6.63;;;5.50;;
24559;SDS011;12727;49.934;8.656;2024-03-02T10:32:16;7.88;;;6.32;;
24559;SDS011;12727;49.934;8.656;2024-03-02T10:34:43;9.32;;;6.38;;
24559;SDS011;12727;49.934;8.656;2024-03-02T10:37:12;8.48;;;5.90;;
24559;SDS011;12727;49.934;8.656;2024-03-02T10:39:37;7.30;;;5.60;;
24559;SDS011;12727;49.934;8.656;2024-03-02T10:42:05;7.65;;;5.93;;
24559;SDS011;12727;49.934;8.656;2024-03-02T10:44:31;7.43;;;5.75;;
24559;SDS011;12727;49.934;8.656;2024-03-02T10:47:04;6.25;;;4.68;;
24559;SDS011;12727;49.934;8.656;2024-03-02T10:49:31;6.95;;;4.88;;
24559;SDS011;12727;49.934;8.656;2024-03-02T10:51:57;6.50;;;5.00;;
24559;SDS011;12727;49.934;8.656;2024-03-02T10:54:23;4.88;;;3.72;;
24559;SDS011;12727;49.934;8.656;2024-03-02T10:56:54;5.57;;;4.07;;
24559;SDS011;12727;49.934;8.656;2024-03-02T10:59:27;5.70;;;4.15;;
24559;SDS011;12727;49.934;8.656;2024-03-02T11:02:01;4.55;;;3.42;;
24559;SDS011;12727;49.934;8.656;2024-03-02T11:04:28;5.22;;;3.92;;
24559;SDS011;12727;49.934;8.656;2024-03-02T11:09:37;3.85;;;3.30;;
24559;SDS011;12727;49.934;8.656;2024-03-02T11:12:19;3.67;;;2.80;;
24559;SDS011;12727;49.934;8.656;2024-03-02T11:14:48;3.15;;;2.70;;
24559;SDS011;12727;49.934;8.656;2024-03-02T11:17:17;4.25;;;3.33;;
24559;SDS011;12727;49.934;8.656;2024-03-02T11:19:43;4.78;;;2.75;;
24559;SDS011;12727;49.934;8.656;2024-03-02T11:22:10;5.10;;;2.92;;
24559;SDS011;12727;49.934;8.656;2024-03-02T11:24:37;4.38;;;2.40;;
24559;SDS011;12727;49.934;8.656;2024-03-02T11:27:03;3.45;;;2.40;;
24559;SDS011;12727;49.934;8.656;2024-03-02T11:32:06;4.55;;;2.80;;
24559;SDS011;12727;49.934;8.656;2024-03-02T11:34:39;3.42;;;2.35;;
24559;SDS011;12727;49.934;8.656;2024-03-02T11:37:11;4.90;;;2.70;;
24559;SDS011;12727;49.934;8.656;2024-03-02T11:39:38;4.07;;;2.28;;
24559;SDS011;12727;49.934;8.656;2024-03-02T11:42:07;3.13;;;2.30;;
24559;SDS011;12727;49.934;8.656;2024-03-02T11:44:36;3.83;;;2.75;;
24559;SDS011;12727;49.934;8.656;2024-03-02T11:47:05;7.72;;;2.80;;
24559;SDS011;12727;49.934;8.656;2024-03-02T11:49:45;4.15;;;2.80;;
24559;SDS011;12727;49.934;8.656;2024-03-02T11:52:15;6.00;;;3.05;;
24559;SDS011;12727;49.934;8.656;2024-03-02T11:54:43;3.70;;;3.08;;
24559;SDS011;12727;49.934;8.656;2024-03-02T11:57:21;5.68;;;3.72;;
24559;SDS011;12727;49.934;8.656;2024-03-02T11:59:51;4.78;;;2.95;;
24559;SDS011;12727;49.934;8.656;2024-03-02T12:02:19;5.20;;;3.42;;
24559;SDS011;12727;49.934;8.656;2024-03-02T12:04:45;4.10;;;2.92;;
24559;SDS011;12727;49.934;8.656;2024-03-02T12:07:13;4.90;;;3.00;;
24559;SDS011;12727;49.934;8.656;2024-03-02T12:09:48;4.60;;;3.00;;
24559;SDS011;12727;49.934;8.656;2024-03-02T12:12:15;4.57;;;3.10;;
24559;SDS011;12727;49.934;8.656;2024-03-02T12:14:49;4.70;;;3.08;;
24559;SDS011;12727;49.934;8.656;2024-03-02T12:17:16;4.45;;;3.10;;
24559;SDS011;12727;49.934;8.656;2024-03-02T12:19:42;4.47;;;3.30;;
24559;SDS011;12727;49.934;8.656;2024-03-02T12:22:07;6.10;;;3.90;;
24559;SDS011;12727;49.934;8.656;2024-03-02T12:24:33;4.68;;;3.30;;
24559;SDS011;12727;49.934;8.656;2024-03-02T12:26:59;6.65;;;3.53;;
24559;SDS011;12727;49.934;8.656;2024-03-02T12:29:24;4.25;;;3.10;;
24559;SDS011;12727;49.934;8.656;2024-03-02T12:31:51;4.68;;;3.45;;
24559;SDS011;12727;49.934;8.656;2024-03-02T12:34:17;5.88;;;3.30;;
24559;SDS011;12727;49.934;8.656;2024-03-02T12:36:43;4.07;;;3.13;;
24559;SDS011;12727;49.934;8.656;2024-03-02T12:39:12;5.15;;;3.10;;
24559;SDS011;12727;49.934;8.656;2024-03-02T12:41:38;4.93;;;3.33;;
24559;SDS011;12727;49.934;8.656;2024-03-02T12:44:04;10.23;;;3.47;;
24559;SDS011;12727;49.934;8.656;2024-03-02T12:46:34;6.63;;;3.63;;
24559;SDS011;12727;49.934;8.656;2024-03-02T12:49:11;5.30;;;3.20;;
24559;SDS011;12727;49.934;8.656;2024-03-02T12:51:39;5.10;;;3.50;;
24559;SDS011;12727;49.934;8.656;2024-03-02T12:54:08;5.13;;;3.50;;
24559;SDS011;12727;49.934;8.656;2024-03-02T12:56:35;4.35;;;3.45;;
24559;SDS011;12727;49.934;8.656;2024-03-02T12:59:01;5.13;;;3.17;;
24559;SDS011;12727;49.934;8.656;2024-03-02T13:01:27;6.55;;;3.90;;
24559;SDS011;12727;49.934;8.656;2024-03-02T13:03:53;5.20;;;3.40;;
24559;SDS011;12727;49.934;8.656;2024-03-02T13:06:22;3.90;;;2.80;;
24559;SDS011;12727;49.934;8.656;2024-03-02T13:08:49;5.32;;;3.17;;
24559;SDS011;12727;49.934;8.656;2024-03-02T13:11:15;4.90;;;3.20;;
24559;SDS011;12727;49.934;8.656;2024-03-02T13:13:41;3.70;;;3.00;;
24559;SDS011;12727;49.934;8.656;2024-03-02T13:16:10;5.75;;;3.13;;
24559;SDS011;12727;49.934;8.656;2024-03-02T13:18:36;4.45;;;3.08;;
24559;SDS011;12727;49.934;8.656;2024-03-02T13:21:03;4.40;;;2.95;;
24559;SDS011;12727;49.934;8.656;2024-03-02T13:23:29;3.67;;;2.60;;
24559;SDS011;12727;49.934;8.656;2024-03-02T13:25:56;4.72;;;2.88;;
24559;SDS011;12727;49.934;8.656;2024-03-02T13:28:23;5.18;;;2.75;;
24559;SDS011;12727;49.934;8.656;2024-03-02T13:30:49;4.47;;;3.20;;
24559;SDS011;12727;49.934;8.656;2024-03-02T13:33:14;4.75;;;3.63;;
24559;SDS011;12727;49.934;8.656;2024-03-02T13:35:40;4.57;;;2.95;;
24559;SDS011;12727;49.934;8.656;2024-03-02T13:38:05;4.35;;;3.03;;
24559;SDS011;12727;49.934;8.656;2024-03-02T13:40:31;5.68;;;2.83;;
24559;SDS011;12727;49.934;8.656;2024-03-02T13:43:00;4.50;;;2.83;;
24559;SDS011;12727;49.934;8.656;2024-03-02T13:45:27;4.35;;;2.90;;
24559;SDS011;12727;49.934;8.656;2024-03-02T13:47:53;5.35;;;2.88;;
24559;SDS011;12727;49.934;8.656;2024-03-02T13:50:18;4.00;;;2.95;;
24559;SDS011;12727;49.934;8.656;2024-03-02T13:52:44;3.95;;;2.95;;
24559;SDS011;12727;49.934;8.656;2024-03-02T13:55:10;3.65;;;2.65;;
24559;SDS011;12727;49.934;8.656;2024-03-02T13:57:36;5.43;;;3.08;;
24559;SDS011;12727;49.934;8.656;2024-03-02T14:00:02;4.65;;;2.63;;
24559;SDS011;12727;49.934;8.656;2024-03-02T14:02:28;3.78;;;3.00;;
24559;SDS011;12727;49.934;8.656;2024-03-02T14:04:54;4.60;;;2.95;;
24559;SDS011;12727;49.934;8.656;2024-03-02T14:07:19;4.95;;;3.55;;
24559;SDS011;12727;49.934;8.656;2024-03-02T14:09:45;4.90;;;3.25;;
24559;SDS011;12727;49.934;8.656;2024-03-02T14:12:11;3.65;;;2.65;;
24559;SDS011;12727;49.934;8.656;2024-03-02T14:14:38;4.38;;;2.58;;
24559;SDS011;12727;49.934;8.656;2024-03-02T14:17:04;4.28;;;2.60;;
24559;SDS011;12727;49.934;8.656;2024-03-02T14:19:31;3.05;;;2.22;;
24559;SDS011;12727;49.934;8.656;2024-03-02T14:21:57;4.00;;;2.60;;
24559;SDS011;12727;49.934;8.656;2024-03-02T14:24:23;4.75;;;2.80;;
24559;SDS011;12727;49.934;8.656;2024-03-02T14:26:53;3.88;;;2.58;;
24559;SDS011;12727;49.934;8.656;2024-03-02T14:29:18;2.83;;;2.15;;
24559;SDS011;12727;49.934;8.656;2024-03-02T14:31:44;4.05;;;2.38;;
24559;SDS011;12727;49.934;8.656;2024-03-02T14:34:13;3.60;;;2.20;;
24559;SDS011;12727;49.934;8.656;2024-03-02T14:36:41;2.63;;;1.83;;